»·PEaware :: AAL186 KASE-KJAC

AAL186 :: KASE-KJAC

FLIGHT INFORMATION

Flight Status: Arrived
Operator:
American Airlines
More flights by this operator :: More flights under this callsign
Pilot: Josh G. (4619)
Aircraft: AIRBUS A320
(A320)
More flights by this aircraft type
Origin: KASE Aspen-Pitkin Co/Sardy
United States
Destination: KJAC Jackson Hole
United States
More flights between these airports :: More routes between these airports
Route: PITKN4 EKR DNW
File this flight plan on PilotEdge
Remarks:
Altitude:
(Current/Filed)
32,000ft
Speed:
(Current/Filed)
320kts
Departed: 16-May-18 06:14 PM
Arrived: 16-May-18 07:28 PM
Distance/Time
Traveled:
315nm/1:14
Distance/Time
To Go:
Arrived

Flight Plot

Page will automatically refresh every two minutes.

Flight plan parsing failed; only flown route is shown


Map Options




Map Legend


Flown Route
Filed Route
Departure Airport
Arrival Airport
Navaid (VOR, NDB)
Fix

Horizontal Profiles

Position Reports

Time Latitude Longitude Heading Altitude Ground
Speed
16-May-18 17:52 39.219023 -106.864521 73 7782ft 0kts
16-May-18 17:53 39.219023 -106.864521 73 7782ft 0kts
16-May-18 17:54 39.219023 -106.864521 73 7782ft 0kts
16-May-18 17:55 39.219023 -106.864521 73 7782ft 0kts
16-May-18 17:56 39.219023 -106.864521 73 7782ft 0kts
16-May-18 17:57 39.219023 -106.864521 73 7782ft 0kts
16-May-18 17:58 39.219023 -106.864521 73 7782ft 0kts
16-May-18 17:59 39.219023 -106.864521 73 7782ft 0kts
16-May-18 18:00 39.219023 -106.864521 73 7782ft 0kts
16-May-18 18:01 39.219023 -106.864521 73 7782ft 0kts
16-May-18 18:02 39.219023 -106.864521 73 7782ft 0kts
16-May-18 18:03 39.219003 -106.864608 72 7782ft 2kts
16-May-18 18:04 39.219179 -106.865221 156 7783ft 0kts
16-May-18 18:05 39.219245 -106.865251 159 7783ft 0kts
16-May-18 18:06 39.219244 -106.865251 159 7782ft 0kts
16-May-18 18:07 39.218419 -106.865043 190 7782ft 0kts
16-May-18 18:08 39.216591 -106.864495 158 7782ft 6kts
16-May-18 18:09 39.214910 -106.863669 159 7782ft 5kts
16-May-18 18:10 39.213854 -106.863172 160 7782ft 2kts
16-May-18 18:11 39.212188 -106.862503 185 7782ft 0kts
16-May-18 18:12 39.212188 -106.862503 185 7782ft 0kts
16-May-18 18:13 39.211891 -106.862671 222 7782ft 8kts
16-May-18 18:14 39.226461 -106.870421 338 7785ft 172kts
16-May-18 18:15 39.278293 -106.890926 327 9963ft 226kts
16-May-18 18:16 39.316926 -106.971917 294 11195ft 307kts
16-May-18 18:17 39.358991 -107.081330 294 12465ft 367kts
16-May-18 18:18 39.379980 -107.205652 254 14786ft 366kts
16-May-18 18:19 39.354673 -107.333882 254 16991ft 375kts
16-May-18 18:20 39.332714 -107.466427 272 18966ft 389kts
16-May-18 18:21 39.400237 -107.569882 334 20646ft 424kts
16-May-18 18:22 39.509833 -107.627487 334 22293ft 433kts
16-May-18 18:23 39.619132 -107.685381 333 23790ft 441kts
16-May-18 18:24 39.733488 -107.746148 333 25204ft 449kts
16-May-18 18:25 39.848649 -107.807552 333 26515ft 455kts
16-May-18 18:26 39.966096 -107.870365 333 27702ft 462kts
16-May-18 18:27 40.084912 -107.935384 330 28783ft 467kts
16-May-18 18:28 40.200209 -108.004858 330 29779ft 470kts
16-May-18 18:29 40.317372 -108.075646 330 31102ft 465kts
16-May-18 18:30 40.433985 -108.146315 330 32094ft 461kts
16-May-18 18:31 40.549328 -108.216776 330 32112ft 460kts
16-May-18 18:32 40.665364 -108.287690 330 32113ft 461kts
16-May-18 18:33 40.780893 -108.358585 330 32111ft 460kts
16-May-18 18:34 40.877020 -108.417788 330 32117ft 460kts
16-May-18 18:35 40.992888 -108.489409 330 32118ft 460kts
16-May-18 18:36 41.106243 -108.559750 330 32088ft 464kts
16-May-18 18:37 41.222667 -108.632272 330 32106ft 467kts
16-May-18 18:38 41.336859 -108.703687 329 32149ft 469kts
16-May-18 18:39 41.454599 -108.777612 329 32157ft 469kts
16-May-18 18:40 41.572273 -108.851796 329 32139ft 469kts
16-May-18 18:41 41.689452 -108.925967 329 32123ft 468kts
16-May-18 18:42 41.805525 -108.999729 329 31491ft 461kts
16-May-18 18:43 41.924081 -109.059061 354 30537ft 476kts
16-May-18 18:44 42.044421 -109.106198 327 29565ft 449kts
16-May-18 18:45 42.153028 -109.179425 327 28586ft 444kts
16-May-18 18:46 42.260329 -109.251413 327 27629ft 438kts
16-May-18 18:47 42.367765 -109.323718 328 26641ft 431kts
16-May-18 18:48 42.471620 -109.393875 328 25702ft 424kts
16-May-18 18:49 42.571407 -109.461528 328 24789ft 418kts
16-May-18 18:50 42.670079 -109.534396 315 24092ft 403kts
16-May-18 18:51 42.747237 -109.632032 312 22250ft 390kts
16-May-18 18:52 42.815738 -109.727367 293 20454ft 372kts
16-May-18 18:53 42.830520 -109.856365 271 20170ft 360kts
16-May-18 18:54 42.839096 -109.982702 271 20169ft 347kts
16-May-18 18:55 42.847827 -110.111017 272 20165ft 348kts
16-May-18 18:56 42.856399 -110.238889 271 20163ft 342kts
16-May-18 18:57 42.885683 -110.345010 327 20165ft 313kts
16-May-18 18:58 42.962125 -110.312108 66 20178ft 327kts
16-May-18 18:59 42.960587 -110.193603 102 20174ft 317kts
16-May-18 19:00 42.945881 -110.077731 107 20176ft 316kts
16-May-18 19:01 42.914107 -109.978385 156 20184ft 297kts
16-May-18 19:02 42.853453 -110.008620 254 19134ft 274kts
16-May-18 19:03 42.858421 -110.110766 270 18178ft 278kts
16-May-18 19:04 42.863626 -110.215563 270 18162ft 277kts
16-May-18 19:05 42.883036 -110.313604 318 18171ft 296kts
16-May-18 19:06 42.957995 -110.294983 60 18171ft 317kts
16-May-18 19:07 42.956327 -110.183888 106 18168ft 305kts
16-May-18 19:08 42.938654 -110.072936 106 18171ft 306kts
16-May-18 19:09 42.900346 -109.982504 169 18178ft 284kts
16-May-18 19:10 42.849289 -110.033978 265 18177ft 276kts
16-May-18 19:11 42.853008 -110.135514 269 18167ft 276kts
16-May-18 19:12 42.857316 -110.239859 269 18166ft 276kts
16-May-18 19:13 42.898488 -110.324907 309 17162ft 287kts
16-May-18 19:14 42.952950 -110.401919 310 15814ft 282kts
16-May-18 19:15 43.006423 -110.477729 310 14498ft 278kts
16-May-18 19:16 43.059115 -110.552601 310 13219ft 273kts
16-May-18 19:17 43.110817 -110.626253 310 13006ft 275kts
16-May-18 19:18 43.160897 -110.697646 310 13026ft 272kts
16-May-18 19:19 43.210007 -110.768091 310 13047ft 266kts
16-May-18 19:20 43.255277 -110.833090 312 12431ft 224kts
16-May-18 19:21 43.303144 -110.883937 4 12026ft 231kts
16-May-18 19:22 43.361133 -110.857065 18 10797ft 223kts
16-May-18 19:23 43.415370 -110.830778 18 10040ft 223kts
16-May-18 19:24 43.471144 -110.803793 17 9194ft 213kts
16-May-18 19:25 43.524313 -110.778065 17 8132ft 199kts
16-May-18 19:26 43.569880 -110.755877 16 7052ft 154kts
16-May-18 19:27 43.608175 -110.737404 19 6429ft 105kts
16-May-18 19:28 43.614806 -110.732643 176 6429ft 0kts
16-May-18 19:29 43.611829 -110.733964 199 6429ft 14kts
16-May-18 19:30 43.608229 -110.735738 200 6429ft 12kts
16-May-18 19:31 43.605294 -110.736977 151 6429ft 8kts
16-May-18 19:32 43.605033 -110.736314 108 6429ft 0kts

Navigation Log

Ident Type
Flight plan parsing failed, navigation log unavailable